sensor_id;sensor_type;location;lat;lon;timestamp;pressure;altitude;pressure_sealevel;temperature;humidity
64294;BME280;50636;45.596;5.258;2023-04-22T00:01:49;98027.13;;;15.82;46.53
64294;BME280;50636;45.596;5.258;2023-04-22T00:04:15;98033.00;;;15.89;46.48
64294;BME280;50636;45.596;5.258;2023-04-22T00:06:41;98031.13;;;15.85;46.22
64294;BME280;50636;45.596;5.258;2023-04-22T00:09:07;98028.72;;;15.83;45.52
64294;BME280;50636;45.596;5.258;2023-04-22T00:11:32;98035.63;;;15.62;46.34
64294;BME280;50636;45.596;5.258;2023-04-22T00:13:58;98032.03;;;15.46;46.30
64294;BME280;50636;45.596;5.258;2023-04-22T00:16:24;98033.69;;;15.30;46.74
64294;BME280;50636;45.596;5.258;2023-04-22T00:18:50;98039.72;;;15.26;47.16
64294;BME280;50636;45.596;5.258;2023-04-22T00:21:16;98028.41;;;15.30;47.33
64294;BME280;50636;45.596;5.258;2023-04-22T00:23:41;98041.63;;;15.30;47.35
64294;BME280;50636;45.596;5.258;2023-04-22T00:26:10;98034.22;;;15.27;47.00
64294;BME280;50636;45.596;5.258;2023-04-22T00:28:35;98040.97;;;15.18;47.04
64294;BME280;50636;45.596;5.258;2023-04-22T00:31:01;98035.59;;;15.13;47.00
64294;BME280;50636;45.596;5.258;2023-04-22T00:33:29;98039.78;;;15.09;46.99
64294;BME280;50636;45.596;5.258;2023-04-22T00:35:55;98038.66;;;15.05;47.20
64294;BME280;50636;45.596;5.258;2023-04-22T00:38:21;98035.97;;;15.00;47.49
64294;BME280;50636;45.596;5.258;2023-04-22T00:40:47;98037.09;;;15.04;47.41
64294;BME280;50636;45.596;5.258;2023-04-22T00:43:13;98031.56;;;15.05;47.28
64294;BME280;50636;45.596;5.258;2023-04-22T00:45:41;98031.38;;;15.12;47.15
64294;BME280;50636;45.596;5.258;2023-04-22T00:48:08;98032.28;;;15.23;47.09
64294;BME280;50636;45.596;5.258;2023-04-22T00:50:34;98017.09;;;15.35;46.58
64294;BME280;50636;45.596;5.258;2023-04-22T00:52:59;98020.16;;;15.49;46.41
64294;BME280;50636;45.596;5.258;2023-04-22T00:55:25;98010.13;;;15.51;46.07
64294;BME280;50636;45.596;5.258;2023-04-22T00:57:51;98013.03;;;15.49;46.01
64294;BME280;50636;45.596;5.258;2023-04-22T01:00:18;98011.50;;;15.53;46.21
64294;BME280;50636;45.596;5.258;2023-04-22T01:02:48;98017.06;;;15.57;46.01
64294;BME280;50636;45.596;5.258;2023-04-22T01:05:14;98016.50;;;15.55;46.25
64294;BME280;50636;45.596;5.258;2023-04-22T01:07:39;98011.53;;;15.58;46.33
64294;BME280;50636;45.596;5.258;2023-04-22T01:10:05;98010.03;;;15.68;46.06
64294;BME280;50636;45.596;5.258;2023-04-22T01:12:31;98008.81;;;15.75;46.16
64294;BME280;50636;45.596;5.258;2023-04-22T01:14:57;98011.47;;;15.75;46.22
64294;BME280;50636;45.596;5.258;2023-04-22T01:17:23;98008.91;;;15.86;46.01
64294;BME280;50636;45.596;5.258;2023-04-22T01:19:49;98019.59;;;15.96;45.55
64294;BME280;50636;45.596;5.258;2023-04-22T01:22:15;98027.53;;;15.96;45.65
64294;BME280;50636;45.596;5.258;2023-04-22T01:24:41;98025.88;;;15.90;45.79
64294;BME280;50636;45.596;5.258;2023-04-22T01:27:07;98020.38;;;15.96;45.92
64294;BME280;50636;45.596;5.258;2023-04-22T01:29:35;98023.56;;;15.98;45.45
64294;BME280;50636;45.596;5.258;2023-04-22T01:32:02;98020.09;;;15.93;46.04
64294;BME280;50636;45.596;5.258;2023-04-22T01:34:29;98029.66;;;15.99;45.73
64294;BME280;50636;45.596;5.258;2023-04-22T01:36:55;98037.19;;;16.12;45.42
64294;BME280;50636;45.596;5.258;2023-04-22T01:39:20;98034.53;;;16.12;45.53
64294;BME280;50636;45.596;5.258;2023-04-22T01:41:46;98037.13;;;16.07;45.71
64294;BME280;50636;45.596;5.258;2023-04-22T01:44:12;98030.19;;;16.01;45.29
64294;BME280;50636;45.596;5.258;2023-04-22T01:46:38;98029.63;;;15.94;45.73
64294;BME280;50636;45.596;5.258;2023-04-22T01:49:04;98032.56;;;15.97;45.67
64294;BME280;50636;45.596;5.258;2023-04-22T01:51:30;98033.16;;;16.05;45.48
64294;BME280;50636;45.596;5.258;2023-04-22T01:53:56;98028.94;;;16.04;45.54
64294;BME280;50636;45.596;5.258;2023-04-22T01:56:22;98027.56;;;16.01;45.33
64294;BME280;50636;45.596;5.258;2023-04-22T01:58:48;98040.78;;;16.01;45.60
64294;BME280;50636;45.596;5.258;2023-04-22T02:01:13;98032.06;;;16.01;45.55
64294;BME280;50636;45.596;5.258;2023-04-22T02:03:39;98032.59;;;16.03;45.41
64294;BME280;50636;45.596;5.258;2023-04-22T02:06:06;98032.84;;;16.01;45.41
64294;BME280;50636;45.596;5.258;2023-04-22T02:08:32;98035.50;;;16.01;45.63
64294;BME280;50636;45.596;5.258;2023-04-22T02:10:58;98039.25;;;16.05;45.24
64294;BME280;50636;45.596;5.258;2023-04-22T02:13:25;98040.31;;;16.04;45.26
64294;BME280;50636;45.596;5.258;2023-04-22T02:15:52;98040.31;;;16.04;45.53
64294;BME280;50636;45.596;5.258;2023-04-22T02:18:17;98040.31;;;16.04;45.32
64294;BME280;50636;45.596;5.258;2023-04-22T02:20:43;98043.44;;;16.01;45.37
64294;BME280;50636;45.596;5.258;2023-04-22T02:23:09;98040.06;;;16.06;45.51
64294;BME280;50636;45.596;5.258;2023-04-22T02:25:36;98036.09;;;16.08;45.16
64294;BME280;50636;45.596;5.258;2023-04-22T02:28:02;98041.56;;;15.96;45.33
64294;BME280;50636;45.596;5.258;2023-04-22T02:30:28;98051.97;;;15.81;45.69
64294;BME280;50636;45.596;5.258;2023-04-22T02:32:54;98042.94;;;15.77;45.75
64294;BME280;50636;45.596;5.258;2023-04-22T02:35:20;98046.78;;;15.64;46.38
64294;BME280;50636;45.596;5.258;2023-04-22T02:37:46;98055.28;;;15.71;46.25
64294;BME280;50636;45.596;5.258;2023-04-22T02:40:11;98051.41;;;15.74;46.01
64294;BME280;50636;45.596;5.258;2023-04-22T02:42:37;98049.59;;;15.80;45.91
64294;BME280;50636;45.596;5.258;2023-04-22T02:45:03;98056.25;;;15.82;45.93
64294;BME280;50636;45.596;5.258;2023-04-22T02:47:29;98051.72;;;15.77;45.88
64294;BME280;50636;45.596;5.258;2023-04-22T02:49:55;98047.69;;;15.75;45.87
64294;BME280;50636;45.596;5.258;2023-04-22T02:52:20;98051.97;;;15.81;45.98
64294;BME280;50636;45.596;5.258;2023-04-22T02:54:46;98039.59;;;15.87;45.71
64294;BME280;50636;45.596;5.258;2023-04-22T02:57:11;98051.97;;;15.81;45.51
64294;BME280;50636;45.596;5.258;2023-04-22T02:59:37;98057.16;;;15.71;45.54
64294;BME280;50636;45.596;5.258;2023-04-22T03:02:03;98045.16;;;15.63;45.66
64294;BME280;50636;45.596;5.258;2023-04-22T03:04:28;98046.47;;;15.61;45.82
64294;BME280;50636;45.596;5.258;2023-04-22T03:06:54;98039.59;;;15.60;45.93
64294;BME280;50636;45.596;5.258;2023-04-22T03:09:20;98042.56;;;15.68;45.93
64294;BME280;50636;45.596;5.258;2023-04-22T03:11:46;98040.00;;;15.73;45.83
64294;BME280;50636;45.596;5.258;2023-04-22T03:14:11;98035.06;;;15.82;45.79
64294;BME280;50636;45.596;5.258;2023-04-22T03:16:37;98047.31;;;15.88;45.68
64294;BME280;50636;45.596;5.258;2023-04-22T03:19:03;98049.50;;;15.96;45.42
64294;BME280;50636;45.596;5.258;2023-04-22T03:21:28;98040.78;;;16.01;45.18
64294;BME280;50636;45.596;5.258;2023-04-22T03:23:54;98039.50;;;16.04;45.07
64294;BME280;50636;45.596;5.258;2023-04-22T03:26:19;98047.19;;;16.05;45.27
64294;BME280;50636;45.596;5.258;2023-04-22T03:28:46;98052.06;;;16.18;45.05
64294;BME280;50636;45.596;5.258;2023-04-22T03:31:11;98056.34;;;16.25;44.31
64294;BME280;50636;45.596;5.258;2023-04-22T03:33:37;98058.75;;;16.26;44.40
64294;BME280;50636;45.596;5.258;2023-04-22T03:36:03;98049.75;;;16.27;44.30
64294;BME280;50636;45.596;5.258;2023-04-22T03:38:28;98047.25;;;16.15;44.38
64294;BME280;50636;45.596;5.258;2023-04-22T03:40:54;98042.72;;;16.11;44.24
64294;BME280;50636;45.596;5.258;2023-04-22T03:43:20;98043.09;;;15.92;44.39
64294;BME280;50636;45.596;5.258;2023-04-22T03:45:46;98040.91;;;15.84;44.62
64294;BME280;50636;45.596;5.258;2023-04-22T03:48:11;98043.22;;;15.75;44.80
64294;BME280;50636;45.596;5.258;2023-04-22T03:50:37;98047.69;;;15.53;44.97
64294;BME280;50636;45.596;5.258;2023-04-22T03:53:03;98051.22;;;15.36;45.68
64294;BME280;50636;45.596;5.258;2023-04-22T03:55:29;98050.31;;;15.26;45.60
64294;BME280;50636;45.596;5.258;2023-04-22T03:57:54;98058.81;;;15.11;46.11
64294;BME280;50636;45.596;5.258;2023-04-22T04:00:20;98068.03;;;14.86;46.94
64294;BME280;50636;45.596;5.258;2023-04-22T04:02:46;98061.06;;;14.80;47.41
64294;BME280;50636;45.596;5.258;2023-04-22T04:05:11;98060.09;;;14.86;47.62
64294;BME280;50636;45.596;5.258;2023-04-22T04:07:38;98062.19;;;14.84;47.65
64294;BME280;50636;45.596;5.258;2023-04-22T04:10:04;98077.97;;;14.79;47.80
64294;BME280;50636;45.596;5.258;2023-04-22T04:12:30;98070.16;;;14.67;48.05
64294;BME280;50636;45.596;5.258;2023-04-22T04:14:55;98066.63;;;14.62;48.41
64294;BME280;50636;45.596;5.258;2023-04-22T04:17:21;98069.72;;;14.58;48.62
64294;BME280;50636;45.596;5.258;2023-04-22T04:19:50;98071.81;;;14.56;48.66
64294;BME280;50636;45.596;5.258;2023-04-22T04:22:16;98063.31;;;14.54;48.32
64294;BME280;50636;45.596;5.258;2023-04-22T04:24:43;98085.00;;;14.56;48.36
64294;BME280;50636;45.596;5.258;2023-04-22T04:27:08;98079.81;;;14.62;47.72
64294;BME280;50636;45.596;5.258;2023-04-22T04:29:36;98074.88;;;14.65;47.77
64294;BME280;50636;45.596;5.258;2023-04-22T04:32:02;98085.16;;;14.67;47.83
64294;BME280;50636;45.596;5.258;2023-04-22T04:34:29;98088.13;;;14.70;48.59
64294;BME280;50636;45.596;5.258;2023-04-22T04:36:56;98086.06;;;14.72;48.85
64294;BME280;50636;45.596;5.258;2023-04-22T04:39:22;98096.69;;;14.61;48.38
64294;BME280;50636;45.596;5.258;2023-04-22T04:41:48;98100.63;;;14.58;48.27
64294;BME280;50636;45.596;5.258;2023-04-22T04:44:14;98096.84;;;14.54;48.51
64294;BME280;50636;45.596;5.258;2023-04-22T04:46:40;98093.25;;;14.60;49.28
64294;BME280;50636;45.596;5.258;2023-04-22T04:49:06;98090.78;;;14.70;49.02
64294;BME280;50636;45.596;5.258;2023-04-22T04:51:34;98092.78;;;14.80;49.04
64294;BME280;50636;45.596;5.258;2023-04-22T04:53:59;98104.53;;;14.89;49.04
64294;BME280;50636;45.596;5.258;2023-04-22T04:56:25;98101.94;;;14.94;48.59
64294;BME280;50636;45.596;5.258;2023-04-22T04:58:51;98098.00;;;14.75;49.31
64294;BME280;50636;45.596;5.258;2023-04-22T05:01:16;98094.63;;;14.80;49.41
64294;BME280;50636;45.596;5.258;2023-04-22T05:03:42;98099.00;;;14.91;49.31
64294;BME280;50636;45.596;5.258;2023-04-22T05:06:08;98100.47;;;15.21;48.80
64294;BME280;50636;45.596;5.258;2023-04-22T05:08:34;98096.59;;;15.50;47.53
64294;BME280;50636;45.596;5.258;2023-04-22T05:11:00;98098.44;;;15.50;47.13
64294;BME280;50636;45.596;5.258;2023-04-22T05:13:26;98097.25;;;15.63;47.08
64294;BME280;50636;45.596;5.258;2023-04-22T05:15:52;98094.94;;;15.66;46.62
64294;BME280;50636;45.596;5.258;2023-04-22T05:18:18;98096.28;;;15.69;46.83
64294;BME280;50636;45.596;5.258;2023-04-22T05:20:43;98103.81;;;15.77;46.58
64294;BME280;50636;45.596;5.258;2023-04-22T05:23:09;98104.22;;;15.91;46.39
64294;BME280;50636;45.596;5.258;2023-04-22T05:25:35;98102.53;;;16.07;45.73
64294;BME280;50636;45.596;5.258;2023-04-22T05:28:00;98108.72;;;15.90;45.64
64294;BME280;50636;45.596;5.258;2023-04-22T05:30:26;98115.22;;;15.77;45.87
64294;BME280;50636;45.596;5.258;2023-04-22T05:32:52;98110.84;;;15.71;45.90
64294;BME280;50636;45.596;5.258;2023-04-22T05:35:17;98105.44;;;15.61;46.61
64294;BME280;50636;45.596;5.258;2023-04-22T05:37:43;98109.69;;;15.62;46.66
64294;BME280;50636;45.596;5.258;2023-04-22T05:40:09;98100.03;;;15.51;46.47
64294;BME280;50636;45.596;5.258;2023-04-22T05:42:34;98107.25;;;15.55;47.31
64294;BME280;50636;45.596;5.258;2023-04-22T05:45:00;98110.75;;;15.83;46.85
64294;BME280;50636;45.596;5.258;2023-04-22T05:47:26;98124.69;;;16.01;46.49
64294;BME280;50636;45.596;5.258;2023-04-22T05:49:52;98121.91;;;16.12;46.33
64294;BME280;50636;45.596;5.258;2023-04-22T05:52:18;98124.03;;;16.15;45.71
64294;BME280;50636;45.596;5.258;2023-04-22T05:54:43;98127.41;;;16.06;46.08
64294;BME280;50636;45.596;5.258;2023-04-22T05:57:09;98134.38;;;16.17;46.26
64294;BME280;50636;45.596;5.258;2023-04-22T05:59:35;98132.69;;;16.65;45.94
64294;BME280;50636;45.596;5.258;2023-04-22T06:02:01;98138.38;;;17.22;44.14
64294;BME280;50636;45.596;5.258;2023-04-22T06:04:26;98136.91;;;17.41;44.18
64294;BME280;50636;45.596;5.258;2023-04-22T06:06:52;98140.38;;;17.47;43.43
64294;BME280;50636;45.596;5.258;2023-04-22T06:09:19;98131.03;;;17.34;43.93
64294;BME280;50636;45.596;5.258;2023-04-22T06:11:45;98129.22;;;17.45;43.77
64294;BME280;50636;45.596;5.258;2023-04-22T06:14:11;98128.66;;;17.37;44.13
64294;BME280;50636;45.596;5.258;2023-04-22T06:16:37;98136.56;;;17.27;44.41
64294;BME280;50636;45.596;5.258;2023-04-22T06:19:04;98132.06;;;17.28;43.60
64294;BME280;50636;45.596;5.258;2023-04-22T06:21:30;98126.69;;;17.17;43.88
64294;BME280;50636;45.596;5.258;2023-04-22T06:23:58;98136.66;;;17.00;43.66
64294;BME280;50636;45.596;5.258;2023-04-22T06:26:24;98140.81;;;16.86;44.78
64294;BME280;50636;45.596;5.258;2023-04-22T06:28:51;98145.31;;;16.85;45.22
64294;BME280;50636;45.596;5.258;2023-04-22T06:31:17;98148.72;;;16.81;44.82
64294;BME280;50636;45.596;5.258;2023-04-22T06:33:42;98151.75;;;16.62;45.31
64294;BME280;50636;45.596;5.258;2023-04-22T06:36:08;98145.06;;;16.54;45.15
64294;BME280;50636;45.596;5.258;2023-04-22T06:38:34;98140.69;;;16.38;45.92
64294;BME280;50636;45.596;5.258;2023-04-22T06:40:59;98146.44;;;16.30;46.54
64294;BME280;50636;45.596;5.258;2023-04-22T06:43:25;98143.47;;;16.26;46.65
64294;BME280;50636;45.596;5.258;2023-04-22T06:45:51;98150.03;;;16.18;47.80
64294;BME280;50636;45.596;5.258;2023-04-22T06:48:16;98152.06;;;16.11;48.37
64294;BME280;50636;45.596;5.258;2023-04-22T06:50:42;98152.03;;;16.06;48.79
64294;BME280;50636;45.596;5.258;2023-04-22T06:53:08;98152.81;;;16.07;48.78
64294;BME280;50636;45.596;5.258;2023-04-22T06:55:34;98158.72;;;16.14;46.07
64294;BME280;50636;45.596;5.258;2023-04-22T06:58:00;98155.81;;;16.43;46.64
64294;BME280;50636;45.596;5.258;2023-04-22T07:00:26;98162.16;;;16.74;45.42
64294;BME280;50636;45.596;5.258;2023-04-22T07:02:52;98164.25;;;16.99;44.42
64294;BME280;50636;45.596;5.258;2023-04-22T07:05:18;98172.97;;;17.00;43.97
64294;BME280;50636;45.596;5.258;2023-04-22T07:07:45;98159.97;;;16.93;43.53
64294;BME280;50636;45.596;5.258;2023-04-22T07:10:11;98158.06;;;16.88;43.72
64294;BME280;50636;45.596;5.258;2023-04-22T07:12:40;98157.81;;;16.90;43.47
64294;BME280;50636;45.596;5.258;2023-04-22T07:15:06;98163.09;;;16.90;43.31
64294;BME280;50636;45.596;5.258;2023-04-22T07:17:32;98157.81;;;16.90;43.18
64294;BME280;50636;45.596;5.258;2023-04-22T07:19:58;98170.38;;;17.05;42.84
64294;BME280;50636;45.596;5.258;2023-04-22T07:22:24;98171.75;;;17.12;42.54
64294;BME280;50636;45.596;5.258;2023-04-22T07:24:50;98171.59;;;17.29;42.47
64294;BME280;50636;45.596;5.258;2023-04-22T07:27:15;98158.91;;;17.42;41.05
64294;BME280;50636;45.596;5.258;2023-04-22T07:29:42;98168.78;;;17.51;40.60
64294;BME280;50636;45.596;5.258;2023-04-22T07:32:07;98160.59;;;17.58;40.20
64294;BME280;50636;45.596;5.258;2023-04-22T07:34:35;98156.84;;;17.49;39.54
64294;BME280;50636;45.596;5.258;2023-04-22T07:37:00;98155.22;;;17.48;39.56
64294;BME280;50636;45.596;5.258;2023-04-22T07:39:26;98150.22;;;17.56;39.09
64294;BME280;50636;45.596;5.258;2023-04-22T07:41:52;98154.47;;;17.57;38.41
64294;BME280;50636;45.596;5.258;2023-04-22T07:44:18;98165.88;;;17.53;38.23
64294;BME280;50636;45.596;5.258;2023-04-22T07:46:46;98160.00;;;17.41;37.76
64294;BME280;50636;45.596;5.258;2023-04-22T07:49:12;98156.72;;;17.28;37.80
64294;BME280;50636;45.596;5.258;2023-04-22T07:51:45;98156.09;;;17.11;37.70
64294;BME280;50636;45.596;5.258;2023-04-22T07:54:11;98156.00;;;16.95;38.06
64294;BME280;50636;45.596;5.258;2023-04-22T07:56:37;98158.06;;;16.88;37.41
64294;BME280;50636;45.596;5.258;2023-04-22T07:59:03;98148.91;;;16.74;38.41
64294;BME280;50636;45.596;5.258;2023-04-22T08:01:28;98153.78;;;16.82;38.25
64294;BME280;50636;45.596;5.258;2023-04-22T08:03:55;98155.50;;;16.99;37.39
64294;BME280;50636;45.596;5.258;2023-04-22T08:06:20;98149.38;;;16.98;37.46
64294;BME280;50636;45.596;5.258;2023-04-22T08:08:46;98170.69;;;17.08;37.74
64294;BME280;50636;45.596;5.258;2023-04-22T08:11:12;98174.13;;;17.14;37.48
64294;BME280;50636;45.596;5.258;2023-04-22T08:13:38;98179.19;;;17.15;36.98
64294;BME280;50636;45.596;5.258;2023-04-22T08:16:03;98177.31;;;17.16;37.53
64294;BME280;50636;45.596;5.258;2023-04-22T08:18:31;98169.47;;;17.31;37.28
64294;BME280;50636;45.596;5.258;2023-04-22T08:20:56;98155.22;;;17.43;37.15
64294;BME280;50636;45.596;5.258;2023-04-22T08:23:22;98160.88;;;17.62;36.97
64294;BME280;50636;45.596;5.258;2023-04-22T08:25:48;98165.13;;;17.63;36.98
64294;BME280;50636;45.596;5.258;2023-04-22T08:28:14;98174.44;;;17.65;37.20
64294;BME280;50636;45.596;5.258;2023-04-22T08:30:40;98172.31;;;17.67;37.03
64294;BME280;50636;45.596;5.258;2023-04-22T08:33:05;98177.63;;;17.72;37.08
64294;BME280;50636;45.596;5.258;2023-04-22T08:35:33;98179.50;;;17.72;37.01
64294;BME280;50636;45.596;5.258;2023-04-22T08:38:00;98182.94;;;17.72;37.24
64294;BME280;50636;45.596;5.258;2023-04-22T08:40:27;98181.06;;;17.68;36.91
64294;BME280;50636;45.596;5.258;2023-04-22T08:42:53;98185.53;;;17.57;37.65
64294;BME280;50636;45.596;5.258;2023-04-22T08:45:20;98185.50;;;17.52;36.95
64294;BME280;50636;45.596;5.258;2023-04-22T08:47:48;98188.88;;;17.37;37.43
64294;BME280;50636;45.596;5.258;2023-04-22T08:50:14;98187.78;;;17.33;38.00
64294;BME280;50636;45.596;5.258;2023-04-22T08:52:43;98200.53;;;17.36;37.86
64294;BME280;50636;45.596;5.258;2023-04-22T08:55:09;98190.50;;;17.43;37.72
64294;BME280;50636;45.596;5.258;2023-04-22T08:57:38;98190.56;;;17.53;38.22
64294;BME280;50636;45.596;5.258;2023-04-22T09:00:04;98196.44;;;17.66;37.33
64294;BME280;50636;45.596;5.258;2023-04-22T09:02:32;98191.44;;;17.74;37.37
64294;BME280;50636;45.596;5.258;2023-04-22T09:04:59;98188.84;;;17.85;36.68
64294;BME280;50636;45.596;5.258;2023-04-22T09:07:27;98184.66;;;17.89;36.63
64294;BME280;50636;45.596;5.258;2023-04-22T09:09:54;98185.47;;;18.00;36.56
64294;BME280;50636;45.596;5.258;2023-04-22T09:12:21;98208.84;;;18.08;36.02
64294;BME280;50636;45.596;5.258;2023-04-22T09:14:47;98194.81;;;18.17;36.33
64294;BME280;50636;45.596;5.258;2023-04-22T09:17:17;98194.03;;;18.32;35.97
64294;BME280;50636;45.596;5.258;2023-04-22T09:19:43;98201.84;;;19.06;35.87
64294;BME280;50636;45.596;5.258;2023-04-22T09:22:11;98205.06;;;19.99;33.95
64294;BME280;50636;45.596;5.258;2023-04-22T09:24:57;98201.31;;;20.49;33.40
64294;BME280;50636;45.596;5.258;2023-04-22T09:27:23;98201.44;;;20.73;32.71
64294;BME280;50636;45.596;5.258;2023-04-22T09:29:50;98204.50;;;20.51;32.33
64294;BME280;50636;45.596;5.258;2023-04-22T09:32:19;98210.22;;;20.34;33.37
64294;BME280;50636;45.596;5.258;2023-04-22T09:34:50;98211.56;;;20.32;32.95
64294;BME280;50636;45.596;5.258;2023-04-22T09:37:22;98208.44;;;20.20;32.88
64294;BME280;50636;45.596;5.258;2023-04-22T09:39:48;98209.03;;;20.06;32.53
64294;BME280;50636;45.596;5.258;2023-04-22T09:42:15;98213.69;;;19.65;32.85
64294;BME280;50636;45.596;5.258;2023-04-22T09:44:41;98212.94;;;19.33;33.15
64294;BME280;50636;45.596;5.258;2023-04-22T09:47:07;98224.72;;;19.12;34.21
64294;BME280;50636;45.596;5.258;2023-04-22T09:49:38;98228.44;;;19.06;33.53
64294;BME280;50636;45.596;5.258;2023-04-22T09:52:04;98222.56;;;18.88;33.32
64294;BME280;50636;45.596;5.258;2023-04-22T09:54:30;98218.28;;;18.72;33.65
64294;BME280;50636;45.596;5.258;2023-04-22T09:56:56;98209.25;;;18.68;34.16
64294;BME280;50636;45.596;5.258;2023-04-22T09:59:26;98207.94;;;18.75;33.79
64294;BME280;50636;45.596;5.258;2023-04-22T10:01:55;98197.56;;;18.79;33.75
64294;BME280;50636;45.596;5.258;2023-04-22T10:04:21;98193.88;;;18.80;33.32
64294;BME280;50636;45.596;5.258;2023-04-22T10:06:50;98200.75;;;18.76;33.93
64294;BME280;50636;45.596;5.258;2023-04-22T10:09:17;98196.53;;;18.95;33.72
64294;BME280;50636;45.596;5.258;2023-04-22T10:11:44;98196.25;;;19.12;33.37
64294;BME280;50636;45.596;5.258;2023-04-22T10:14:10;98206.84;;;19.33;33.01
64294;BME280;50636;45.596;5.258;2023-04-22T10:16:39;98198.03;;;19.43;32.75
64294;BME280;50636;45.596;5.258;2023-04-22T10:19:09;98200.69;;;19.58;32.94
64294;BME280;50636;45.596;5.258;2023-04-22T10:21:35;98195.78;;;19.86;32.85
64294;BME280;50636;45.596;5.258;2023-04-22T10:24:02;98178.63;;;20.12;31.72
64294;BME280;50636;45.596;5.258;2023-04-22T10:26:42;98179.31;;;20.33;31.31
64294;BME280;50636;45.596;5.258;2023-04-22T10:29:12;98186.44;;;20.43;31.02
64294;BME280;50636;45.596;5.258;2023-04-22T10:31:42;98180.59;;;20.36;31.24
64294;BME280;50636;45.596;5.258;2023-04-22T10:34:12;98169.47;;;20.29;31.79
64294;BME280;50636;45.596;5.258;2023-04-22T10:36:57;98168.53;;;20.09;31.73
64294;BME280;50636;45.596;5.258;2023-04-22T10:39:24;98164.91;;;19.85;31.82
64294;BME280;50636;45.596;5.258;2023-04-22T10:44:51;98165.50;;;19.61;32.37
64294;BME280;50636;45.596;5.258;2023-04-22T10:47:31;98174.31;;;19.51;32.77
64294;BME280;50636;45.596;5.258;2023-04-22T10:50:25;98180.44;;;19.57;32.90
64294;BME280;50636;45.596;5.258;2023-04-22T10:52:55;98179.38;;;19.58;32.67
64294;BME280;50636;45.596;5.258;2023-04-22T10:55:22;98171.69;;;19.41;33.13
64294;BME280;50636;45.596;5.258;2023-04-22T10:57:50;98170.69;;;19.22;33.63
64294;BME280;50636;45.596;5.258;2023-04-22T11:00:28;98169.59;;;19.33;33.90
64294;BME280;50636;45.596;5.258;2023-04-22T11:03:14;98157.81;;;19.54;33.34
64294;BME280;50636;45.596;5.258;2023-04-22T11:05:41;98161.50;;;19.64;33.13
64294;BME280;50636;45.596;5.258;2023-04-22T11:08:20;98160.75;;;19.58;33.12
64294;BME280;50636;45.596;5.258;2023-04-22T11:10:49;98169.03;;;19.41;33.46
64294;BME280;50636;45.596;5.258;2023-04-22T11:13:20;98165.59;;;19.41;33.53
64294;BME280;50636;45.596;5.258;2023-04-22T11:15:52;98166.63;;;19.45;33.91
64294;BME280;50636;45.596;5.258;2023-04-22T11:18:21;98152.47;;;19.60;33.88
64294;BME280;50636;45.596;5.258;2023-04-22T11:20:47;98156.97;;;19.74;33.50
64294;BME280;50636;45.596;5.258;2023-04-22T11:23:25;98168.09;;;19.87;33.51
64294;BME280;50636;45.596;5.258;2023-04-22T11:26:02;98170.13;;;20.10;33.08
64294;BME280;50636;45.596;5.258;2023-04-22T11:28:29;98160.91;;;20.37;32.43
64294;BME280;50636;45.596;5.258;2023-04-22T11:31:21;98163.78;;;20.80;32.71
64294;BME280;50636;45.596;5.258;2023-04-22T11:33:46;98166.81;;;21.27;32.14
64294;BME280;50636;45.596;5.258;2023-04-22T11:36:13;98165.75;;;21.76;31.32
64294;BME280;50636;45.596;5.258;2023-04-22T11:38:39;98152.66;;;22.18;29.86
64294;BME280;50636;45.596;5.258;2023-04-22T11:41:05;98149.34;;;22.45;29.63
64294;BME280;50636;45.596;5.258;2023-04-22T11:43:31;98142.75;;;22.56;29.48
64294;BME280;50636;45.596;5.258;2023-04-22T11:45:56;98139.53;;;22.73;28.83
64294;BME280;50636;45.596;5.258;2023-04-22T11:48:22;98136.75;;;23.11;29.00
64294;BME280;50636;45.596;5.258;2023-04-22T11:50:48;98136.63;;;23.71;28.10
64294;BME280;50636;45.596;5.258;2023-04-22T11:53:18;98123.38;;;24.39;27.26
64294;BME280;50636;45.596;5.258;2023-04-22T11:55:47;98139.28;;;25.12;27.32
64294;BME280;50636;45.596;5.258;2023-04-22T11:58:18;98127.13;;;25.46;25.31
64294;BME280;50636;45.596;5.258;2023-04-22T12:00:46;98130.25;;;25.39;24.82
64294;BME280;50636;45.596;5.258;2023-04-22T12:08:24;98137.56;;;24.17;25.91
64294;BME280;50636;45.596;5.258;2023-04-22T12:10:56;98129.38;;;23.72;26.07
64294;BME280;50636;45.596;5.258;2023-04-22T12:13:23;98127.72;;;23.62;25.68
64294;BME280;50636;45.596;5.258;2023-04-22T12:15:54;98119.81;;;23.43;25.87
64294;BME280;50636;45.596;5.258;2023-04-22T12:21:13;98105.00;;;23.60;26.61
64294;BME280;50636;45.596;5.258;2023-04-22T12:23:44;98110.56;;;23.77;26.54
64294;BME280;50636;45.596;5.258;2023-04-22T12:26:11;98111.75;;;23.85;25.83
64294;BME280;50636;45.596;5.258;2023-04-22T12:28:37;98118.09;;;23.61;26.17
64294;BME280;50636;45.596;5.258;2023-04-22T12:31:04;98135.78;;;23.48;26.47
64294;BME280;50636;45.596;5.258;2023-04-22T12:33:30;98127.81;;;23.16;27.17
64294;BME280;50636;45.596;5.258;2023-04-22T12:35:56;98142.53;;;22.85;27.42
64294;BME280;50636;45.596;5.258;2023-04-22T12:38:21;98143.53;;;22.57;27.10
64294;BME280;50636;45.596;5.258;2023-04-22T12:40:47;98132.28;;;22.41;27.77
64294;BME280;50636;45.596;5.258;2023-04-22T12:43:13;98138.44;;;22.74;27.83
64294;BME280;50636;45.596;5.258;2023-04-22T12:45:39;98141.72;;;23.31;27.76
64294;BME280;50636;45.596;5.258;2023-04-22T12:48:04;98114.50;;;23.66;26.95
64294;BME280;50636;45.596;5.258;2023-04-22T12:50:30;98123.59;;;23.42;26.98
64294;BME280;50636;45.596;5.258;2023-04-22T12:52:56;98140.16;;;23.30;27.17
64294;BME280;50636;45.596;5.258;2023-04-22T12:55:22;98121.41;;;23.17;27.28
64294;BME280;50636;45.596;5.258;2023-04-22T12:57:48;98127.94;;;22.78;27.80
64294;BME280;50636;45.596;5.258;2023-04-22T13:00:18;98124.47;;;22.44;28.67
64294;BME280;50636;45.596;5.258;2023-04-22T13:02:46;98153.38;;;22.23;29.25
64294;BME280;50636;45.596;5.258;2023-04-22T13:05:13;98144.13;;;22.16;29.58
64294;BME280;50636;45.596;5.258;2023-04-22T13:07:39;98138.00;;;22.34;30.05
64294;BME280;50636;45.596;5.258;2023-04-22T13:10:10;98154.44;;;22.60;30.21